Time;durP1;ratioP1;P1;durP2;ratioP2;P2;SDS_P1;SDS_P2;PMS_P1;PMS_P2;Temp;Humidity;BMP_temperature;BMP_pressure;BME280_temperature;BME280_humidity;BME280_pressure;Samples;Min_cycle;Max_cycle;Signal;HPM_P1;HPM_P2
2023/04/14 00:00:48;;;;;;;5.13;1.50;;;6.20;99.90;;;;;;5109360;28;20044;-60
2023/04/14 00:03:16;;;;;;;5.63;1.23;;;6.20;99.90;;;;;;5113106;28;20046;-60
2023/04/14 00:05:43;;;;;;;5.00;1.85;;;6.20;99.90;;;;;;5111922;28;20486;-59
2023/04/14 00:08:10;;;;;;;4.72;1.65;;;6.20;99.90;;;;;;5117443;28;20332;-59
2023/04/14 00:10:36;;;;;;;6.85;1.67;;;6.20;99.90;;;;;;5109746;28;20062;-59
2023/04/14 00:13:03;;;;;;;5.28;1.40;;;6.20;99.90;;;;;;5116741;28;20052;-60
2023/04/14 00:15:30;;;;;;;5.28;1.45;;;6.20;99.90;;;;;;5114456;28;20048;-59
2023/04/14 00:17:56;;;;;;;4.88;1.15;;;6.20;99.90;;;;;;5116329;28;20040;-59
2023/04/14 00:20:23;;;;;;;5.47;1.23;;;6.20;99.90;;;;;;5115515;28;20122;-59
2023/04/14 00:22:50;;;;;;;6.82;1.15;;;6.20;99.90;;;;;;5116442;28;20438;-60
2023/04/14 00:25:17;;;;;;;5.50;1.20;;;6.20;99.90;;;;;;5112855;28;20485;-57
2023/04/14 00:27:44;;;;;;;6.38;1.48;;;6.10;99.90;;;;;;5116337;28;20043;-61
2023/04/14 00:30:11;;;;;;;4.15;1.20;;;6.10;99.90;;;;;;5109169;28;20089;-60
2023/04/14 00:32:38;;;;;;;5.40;1.20;;;6.10;99.90;;;;;;5095336;28;20425;-61
2023/04/14 00:35:05;;;;;;;5.47;1.13;;;6.10;99.90;;;;;;5095118;28;20048;-60
2023/04/14 00:37:31;;;;;;;4.38;1.15;;;6.10;99.90;;;;;;5096602;28;20044;-58
2023/04/14 00:39:59;;;;;;;8.63;1.35;;;6.10;99.90;;;;;;5094109;28;20036;-60
2023/04/14 00:42:26;;;;;;;7.32;1.20;;;6.10;99.90;;;;;;5096024;28;20039;-61
2023/04/14 00:44:52;;;;;;;10.00;1.58;;;6.10;99.90;;;;;;5094333;28;20074;-58
2023/04/14 00:47:21;;;;;;;8.60;1.38;;;6.10;99.90;;;;;;5095517;28;20069;-61
2023/04/14 00:49:48;;;;;;;9.27;1.63;;;6.10;99.90;;;;;;5095896;28;20043;-58
2023/04/14 00:52:15;;;;;;;5.90;0.90;;;6.10;99.90;;;;;;5095254;28;20062;-60
2023/04/14 00:54:42;;;;;;;6.90;1.40;;;6.10;99.90;;;;;;5096198;28;20044;-59
2023/04/14 00:57:09;;;;;;;5.97;1.55;;;6.10;99.90;;;;;;5094940;28;20056;-59
2023/04/14 00:59:36;;;;;;;10.60;1.90;;;6.10;99.90;;;;;;5094978;28;20552;-58
2023/04/14 01:02:03;;;;;;;5.97;1.10;;;6.10;99.90;;;;;;5096116;28;20089;-60
2023/04/14 01:04:29;;;;;;;9.43;1.70;;;6.20;99.90;;;;;;5094992;28;20142;-60
2023/04/14 01:07:16;;;;;;;7.22;1.30;;;6.20;99.90;;;;;;5096443;28;20086;-61
2023/04/14 01:09:43;;;;;;;8.70;1.40;;;6.20;99.90;;;;;;5094738;28;20044;-60
2023/04/14 01:12:10;;;;;;;7.88;1.02;;;6.20;99.90;;;;;;5096262;28;20374;-57
2023/04/14 01:14:37;;;;;;;7.53;1.50;;;6.20;99.90;;;;;;5094375;28;20044;-61
2023/04/14 01:17:04;;;;;;;8.45;1.40;;;6.20;99.90;;;;;;5095005;28;20039;-59
2023/04/14 01:19:30;;;;;;;6.13;1.25;;;6.20;99.90;;;;;;5095827;28;20475;-60
2023/04/14 01:21:57;;;;;;;12.38;1.55;;;6.20;99.90;;;;;;5096062;28;20059;-58
2023/04/14 01:24:24;;;;;;;9.50;1.50;;;6.20;99.90;;;;;;5095949;28;20086;-60
2023/04/14 01:26:50;;;;;;;8.55;1.60;;;6.20;99.90;;;;;;5094592;28;20436;-60
2023/04/14 01:29:18;;;;;;;5.88;1.40;;;6.30;99.90;;;;;;5093992;28;20490;-60
2023/04/14 01:31:45;;;;;;;9.77;1.85;;;6.30;99.90;;;;;;5095493;28;20064;-59
2023/04/14 01:34:12;;;;;;;12.55;1.80;;;6.30;99.90;;;;;;5094013;28;20040;-59
2023/04/14 01:36:39;;;;;;;7.57;1.52;;;6.30;99.90;;;;;;5095771;28;20068;-60
2023/04/14 01:39:06;;;;;;;11.48;1.20;;;6.30;99.90;;;;;;5094346;28;20051;-58
2023/04/14 01:41:33;;;;;;;10.43;1.42;;;6.30;99.90;;;;;;5094002;28;20572;-60
2023/04/14 01:44:01;;;;;;;6.97;1.67;;;6.40;99.90;;;;;;5094159;28;20040;-59
2023/04/14 01:46:28;;;;;;;7.43;1.90;;;6.40;99.90;;;;;;5095525;28;20044;-59
2023/04/14 01:48:54;;;;;;;6.35;1.17;;;6.40;99.90;;;;;;5095242;28;20081;-60
2023/04/14 01:51:21;;;;;;;12.80;1.63;;;6.40;99.90;;;;;;5093919;28;20157;-60
2023/04/14 01:53:48;;;;;;;10.68;1.33;;;6.40;99.90;;;;;;5094236;28;20150;-60
2023/04/14 01:56:15;;;;;;;12.80;1.63;;;6.40;99.90;;;;;;5093745;28;20047;-59
2023/04/14 01:58:43;;;;;;;8.13;1.58;;;6.40;99.90;;;;;;5095004;28;20052;-60
2023/04/14 02:01:10;;;;;;;8.77;1.50;;;6.40;99.90;;;;;;5093311;28;20048;-60
2023/04/14 02:03:37;;;;;;;7.13;1.23;;;6.40;99.90;;;;;;5094869;28;20494;-60
2023/04/14 02:06:05;;;;;;;5.70;1.20;;;6.40;99.90;;;;;;5094407;28;20043;-60
2023/04/14 02:08:31;;;;;;;11.40;1.58;;;6.30;99.90;;;;;;5095053;28;20044;-60
2023/04/14 02:11:00;;;;;;;10.15;2.22;;;6.30;99.90;;;;;;5093277;28;20044;-60
2023/04/14 02:13:30;;;;;;;16.33;1.75;;;6.30;99.90;;;;;;5093470;28;20480;-59
2023/04/14 02:15:57;;;;;;;10.80;2.15;;;6.30;99.90;;;;;;5093474;28;20147;-59
2023/04/14 02:18:24;;;;;;;10.55;2.20;;;6.30;99.90;;;;;;5094697;28;20130;-60
2023/04/14 02:20:51;;;;;;;15.00;3.15;;;6.30;99.90;;;;;;5094573;28;20383;-60
2023/04/14 02:23:18;;;;;;;16.35;4.10;;;6.30;99.90;;;;;;5094434;28;20544;-61
2023/04/14 02:25:45;;;;;;;14.32;4.60;;;6.30;99.90;;;;;;5094202;28;20509;-60
2023/04/14 02:28:11;;;;;;;16.02;4.38;;;6.30;99.90;;;;;;5093035;28;20068;-60
2023/04/14 02:30:38;;;;;;;13.32;3.67;;;6.30;99.90;;;;;;5093233;28;20149;-60
2023/04/14 02:33:05;;;;;;;10.40;3.42;;;6.30;99.90;;;;;;5093265;28;20046;-60
2023/04/14 02:35:36;;;;;;;10.80;2.67;;;6.30;99.90;;;;;;5092944;28;20048;-60
2023/04/14 02:38:03;;;;;;;12.18;2.25;;;6.30;99.90;;;;;;5093147;28;20486;-59
2023/04/14 02:40:30;;;;;;;11.38;2.05;;;6.30;99.90;;;;;;5092886;28;20441;-60
2023/04/14 02:42:57;;;;;;;11.73;2.50;;;6.30;99.90;;;;;;5094349;28;20040;-60
2023/04/14 02:45:23;;;;;;;13.48;2.40;;;6.30;99.90;;;;;;5092835;28;20138;-61
2023/04/14 02:47:51;;;;;;;9.88;2.15;;;6.30;99.90;;;;;;5092701;28;20435;-59
2023/04/14 02:50:17;;;;;;;12.18;2.30;;;6.30;99.90;;;;;;5093650;28;20101;-60
2023/04/14 02:52:55;;;;;;;8.73;2.17;;;6.20;99.90;;;;;;5092652;28;20040;-60
2023/04/14 02:55:25;;;;;;;13.75;2.67;;;6.20;99.90;;;;;;5092725;28;20067;-60
2023/04/14 02:57:53;;;;;;;14.48;3.10;;;6.20;99.90;;;;;;5092773;28;20384;-60
2023/04/14 03:00:20;;;;;;;11.30;2.85;;;6.20;99.90;;;;;;5092671;28;20066;-60
2023/04/14 03:02:49;;;;;;;10.15;3.30;;;6.20;99.90;;;;;;5092805;28;20073;-60
2023/04/14 03:05:16;;;;;;;10.40;2.85;;;6.20;99.90;;;;;;5092712;28;20032;-60
2023/04/14 03:08:18;;;;;;;17.80;4.47;;;6.20;99.90;;;;;;5084069;28;20066;-60
2023/04/14 03:10:48;;;;;;;11.32;3.00;;;6.20;99.90;;;;;;5092684;28;20131;-59
2023/04/14 03:13:19;;;;;;;17.02;4.35;;;6.20;99.90;;;;;;5092510;28;20040;-60
2023/04/14 03:15:46;;;;;;;19.20;3.63;;;6.10;99.90;;;;;;5092718;28;20048;-60
2023/04/14 03:18:15;;;;;;;12.05;3.08;;;6.20;99.90;;;;;;5092222;28;20044;-60
2023/04/14 03:20:44;;;;;;;14.38;3.60;;;6.20;99.90;;;;;;5093276;28;20471;-60
2023/04/14 03:23:12;;;;;;;13.13;2.85;;;6.20;99.90;;;;;;5092150;28;20047;-60
2023/04/14 03:25:45;;;;;;;15.15;3.00;;;6.20;99.90;;;;;;5092281;28;20044;-60
2023/04/14 03:28:17;;;;;;;12.30;3.05;;;6.10;99.90;;;;;;5092329;28;20058;-60
2023/04/14 03:30:46;;;;;;;15.63;4.50;;;6.10;99.90;;;;;;5093142;28;20032;-61
2023/04/14 03:33:14;;;;;;;16.05;5.03;;;6.10;99.90;;;;;;5093407;28;20420;-60
2023/04/14 03:35:42;;;;;;;16.05;4.97;;;6.10;99.90;;;;;;5092658;28;20086;-60
2023/04/14 03:38:09;;;;;;;22.63;6.00;;;6.10;99.90;;;;;;5093236;28;20040;-61
2023/04/14 03:40:37;;;;;;;21.45;5.72;;;6.10;99.90;;;;;;5093867;28;20135;-60
2023/04/14 03:43:04;;;;;;;20.83;5.90;;;6.10;99.90;;;;;;5097864;28;20089;-60
2023/04/14 03:45:31;;;;;;;17.90;6.07;;;6.00;99.90;;;;;;5096283;28;20035;-60
2023/04/14 03:47:58;;;;;;;17.67;5.45;;;6.00;99.90;;;;;;5096385;28;20065;-59
2023/04/14 03:50:26;;;;;;;17.27;4.43;;;6.00;99.90;;;;;;5095823;28;20406;-59
2023/04/14 03:52:54;;;;;;;13.82;3.35;;;6.00;99.90;;;;;;5096006;28;20403;-60
2023/04/14 03:55:20;;;;;;;14.20;3.47;;;5.90;99.90;;;;;;5097743;28;20118;-59
2023/04/14 03:57:47;;;;;;;12.80;2.78;;;5.90;99.90;;;;;;5096102;28;20090;-59
2023/04/14 04:00:15;;;;;;;10.52;2.17;;;5.90;99.90;;;;;;5097388;28;20040;-59
2023/04/14 04:02:45;;;;;;;15.60;2.65;;;5.90;99.90;;;;;;5096064;28;20040;-58
2023/04/14 04:05:12;;;;;;;18.55;2.15;;;5.80;99.90;;;;;;5097030;28;20478;-60
2023/04/14 04:07:39;;;;;;;11.88;1.95;;;5.80;99.90;;;;;;5095783;28;20032;-58
2023/04/14 04:10:06;;;;;;;11.25;2.50;;;5.80;99.90;;;;;;5095812;28;20131;-60
2023/04/14 04:12:33;;;;;;;12.50;2.15;;;5.80;99.90;;;;;;5097021;28;20040;-58
2023/04/14 04:15:01;;;;;;;11.73;2.25;;;5.70;99.90;;;;;;5095712;28;20067;-60
2023/04/14 04:17:28;;;;;;;10.70;2.10;;;5.70;99.90;;;;;;5096655;28;20047;-60
2023/04/14 04:19:55;;;;;;;9.32;2.00;;;5.70;99.90;;;;;;5095087;28;20055;-59
2023/04/14 04:22:24;;;;;;;17.60;2.47;;;5.70;99.90;;;;;;5095291;28;20055;-60
2023/04/14 04:24:51;;;;;;;13.75;2.97;;;5.70;99.90;;;;;;5096565;28;20411;-60
2023/04/14 04:27:24;;;;;;;10.70;1.85;;;5.60;99.90;;;;;;5095588;28;20044;-60
2023/04/14 04:30:02;;;;;;;14.70;2.10;;;5.60;99.90;;;;;;5095666;28;20578;-60
2023/04/14 04:32:31;;;;;;;10.73;1.90;;;5.60;99.90;;;;;;5095102;28;20046;-60
2023/04/14 04:34:58;;;;;;;13.82;2.40;;;5.60;99.90;;;;;;5095000;28;20032;-60
2023/04/14 04:37:27;;;;;;;15.05;2.00;;;5.50;99.90;;;;;;5094899;28;20097;-59
2023/04/14 04:39:55;;;;;;;13.13;1.80;;;5.50;99.90;;;;;;5094770;28;20082;-60
2023/04/14 04:42:21;;;;;;;13.15;2.35;;;5.50;99.90;;;;;;5096667;28;20040;-60
2023/04/14 04:44:49;;;;;;;12.93;2.20;;;5.50;99.90;;;;;;5094858;28;20119;-59
2023/04/14 04:47:16;;;;;;;11.95;2.30;;;5.50;99.90;;;;;;5094754;28;20504;-60
2023/04/14 04:49:43;;;;;;;12.32;2.40;;;5.50;99.90;;;;;;5095200;28;20085;-59
2023/04/14 04:52:10;;;;;;;13.68;2.10;;;5.50;99.90;;;;;;5095861;28;20075;-60
2023/04/14 04:54:36;;;;;;;15.68;2.53;;;5.50;99.90;;;;;;5094713;28;20048;-59
2023/04/14 04:57:04;;;;;;;15.30;3.00;;;5.50;99.90;;;;;;5095933;28;20093;-60
2023/04/14 04:59:32;;;;;;;13.50;2.00;;;5.50;99.90;;;;;;5096518;28;20094;-60
2023/04/14 05:01:58;;;;;;;14.88;2.13;;;5.60;99.90;;;;;;5096008;28;20460;-59
2023/04/14 05:04:25;;;;;;;13.00;2.05;;;5.60;99.90;;;;;;5095133;28;20043;-59
2023/04/14 05:06:52;;;;;;;15.60;2.55;;;5.60;99.90;;;;;;5106369;28;20040;-60
2023/04/14 05:09:19;;;;;;;10.55;2.05;;;5.60;99.90;;;;;;5116425;28;20063;-59
2023/04/14 05:11:46;;;;;;;9.88;1.90;;;5.60;99.90;;;;;;5116181;28;20043;-60
2023/04/14 05:14:12;;;;;;;11.90;2.42;;;5.60;99.90;;;;;;5116119;28;20039;-58
2023/04/14 05:16:39;;;;;;;15.40;2.90;;;5.70;99.90;;;;;;5116561;28;20072;-60
2023/04/14 05:19:06;;;;;;;11.23;2.22;;;5.60;99.90;;;;;;5116423;28;20067;-61
2023/04/14 05:21:33;;;;;;;14.65;2.88;;;5.60;99.90;;;;;;5116082;28;20050;-62
2023/04/14 05:23:59;;;;;;;13.20;2.50;;;5.70;99.90;;;;;;5116378;28;20120;-58
2023/04/14 05:26:26;;;;;;;12.15;2.55;;;5.60;99.90;;;;;;5115936;27;20040;-60
2023/04/14 05:29:13;;;;;;;9.93;2.20;;;5.70;99.90;;;;;;5116257;28;20039;-59
2023/04/14 05:31:40;;;;;;;9.20;2.35;;;5.70;99.90;;;;;;5116128;27;20494;-60
2023/04/14 05:34:07;;;;;;;12.25;2.78;;;5.80;99.90;;;;;;5116355;28;20040;-62
2023/04/14 05:36:33;;;;;;;11.55;2.33;;;5.80;99.90;;;;;;5115148;28;20043;-61
2023/04/14 05:39:00;;;;;;;8.60;1.80;;;5.90;99.90;;;;;;5116167;28;20061;-60
2023/04/14 05:41:27;;;;;;;11.10;2.00;;;5.90;99.90;;;;;;5115585;28;20049;-61
2023/04/14 05:43:53;;;;;;;12.90;2.20;;;6.00;99.90;;;;;;5114773;28;20441;-61
2023/04/14 05:46:20;;;;;;;14.48;2.67;;;6.00;99.90;;;;;;5114379;28;20134;-61
2023/04/14 05:48:47;;;;;;;11.57;2.10;;;6.10;99.90;;;;;;5115820;28;20047;-62
2023/04/14 05:51:13;;;;;;;9.55;2.42;;;6.10;99.90;;;;;;5115504;28;20064;-60
2023/04/14 05:53:40;;;;;;;12.07;2.67;;;6.10;99.90;;;;;;5115261;27;20473;-60
2023/04/14 05:56:10;;;;;;;13.20;2.28;;;6.20;99.90;;;;;;5114533;28;20040;-60
2023/04/14 05:58:36;;;;;;;15.00;1.90;;;6.20;99.90;;;;;;5115501;28;20039;-63
2023/04/14 06:01:04;;;;;;;13.13;3.33;;;6.30;99.90;;;;;;5115335;28;20048;-60
2023/04/14 06:03:31;;;;;;;11.25;1.77;;;6.30;99.90;;;;;;5115135;28;20162;-61
2023/04/14 06:05:58;;;;;;;13.85;2.88;;;6.30;99.90;;;;;;5115694;28;20032;-60
2023/04/14 06:08:25;;;;;;;9.52;2.08;;;6.40;99.90;;;;;;5115421;28;20036;-60
2023/04/14 06:10:51;;;;;;;13.15;2.28;;;6.50;99.90;;;;;;5115121;28;20046;-61
2023/04/14 06:13:21;;;;;;;15.82;2.67;;;6.50;99.90;;;;;;5115393;28;20093;-60
2023/04/14 06:15:49;;;;;;;13.38;2.17;;;6.60;99.90;;;;;;5115592;28;20047;-61
2023/04/14 06:18:15;;;;;;;13.82;2.58;;;6.60;99.90;;;;;;5115492;28;20438;-60
2023/04/14 06:20:42;;;;;;;16.52;3.97;;;6.70;99.90;;;;;;5113809;28;20082;-60
2023/04/14 06:23:09;;;;;;;12.15;2.63;;;6.70;99.90;;;;;;5113476;28;20043;-61
2023/04/14 06:25:36;;;;;;;10.98;2.15;;;6.70;99.90;;;;;;5114978;28;20085;-60
2023/04/14 06:28:03;;;;;;;9.35;1.77;;;6.80;99.90;;;;;;5115026;28;20093;-60
2023/04/14 06:30:31;;;;;;;14.35;2.22;;;6.80;99.90;;;;;;5114553;28;20040;-60
2023/04/14 06:32:58;;;;;;;14.02;2.83;;;6.90;99.90;;;;;;5115004;28;20071;-61
2023/04/14 06:35:24;;;;;;;16.27;3.15;;;7.00;99.90;;;;;;5113810;28;20035;-61
2023/04/14 06:37:59;;;;;;;11.13;2.60;;;7.00;99.90;;;;;;5114507;28;20555;-61
2023/04/14 06:40:25;;;;;;;25.92;2.65;;;7.10;99.90;;;;;;5114438;28;20105;-60
2023/04/14 06:42:52;;;;;;;17.13;2.55;;;7.20;99.90;;;;;;5114740;28;20081;-58
2023/04/14 06:45:19;;;;;;;22.08;2.53;;;7.40;99.90;;;;;;5114530;28;20035;-60
2023/04/14 06:47:46;;;;;;;13.57;2.80;;;7.40;99.90;;;;;;5114522;28;20459;-58
2023/04/14 06:50:13;;;;;;;23.70;2.90;;;7.50;99.90;;;;;;5114515;28;20364;-60
2023/04/14 06:52:40;;;;;;;16.65;2.83;;;7.60;99.90;;;;;;5114623;27;20065;-60
2023/04/14 06:55:06;;;;;;;19.58;3.45;;;7.70;99.90;;;;;;5113532;28;20093;-61
2023/04/14 06:57:33;;;;;;;14.90;3.75;;;7.80;99.90;;;;;;5113678;28;20092;-60
2023/04/14 07:00:00;;;;;;;16.17;3.10;;;7.90;99.90;;;;;;5114555;28;20347;-59
2023/04/14 07:02:27;;;;;;;13.02;3.03;;;8.00;99.90;;;;;;5114867;28;20040;-60
2023/04/14 07:04:54;;;;;;;21.33;3.22;;;8.10;99.90;;;;;;5114288;28;20050;-61
2023/04/14 07:07:23;;;;;;;16.02;2.45;;;8.10;99.90;;;;;;5113859;28;20037;-61
2023/04/14 07:09:50;;;;;;;19.42;3.08;;;8.20;99.90;;;;;;5114045;28;20085;-61
2023/04/14 07:12:17;;;;;;;17.63;2.53;;;8.20;99.90;;;;;;5113091;28;20494;-57
2023/04/14 07:14:50;;;;;;;16.08;3.10;;;8.20;99.90;;;;;;5113762;28;20036;-59
2023/04/14 07:17:17;;;;;;;14.55;2.60;;;8.30;99.90;;;;;;5113894;28;20040;-60
2023/04/14 07:19:45;;;;;;;13.98;2.40;;;8.20;99.90;;;;;;5114356;28;20047;-60
2023/04/14 07:22:11;;;;;;;16.88;2.58;;;8.20;99.90;;;;;;5114419;28;20046;-61
2023/04/14 07:24:38;;;;;;;19.48;2.78;;;8.30;99.90;;;;;;5114055;28;20161;-60
2023/04/14 07:27:06;;;;;;;16.80;2.40;;;8.30;99.90;;;;;;5104383;28;20040;-60
2023/04/14 07:29:33;;;;;;;21.98;2.50;;;8.30;99.90;;;;;;5106942;28;20043;-60
2023/04/14 07:32:00;;;;;;;15.27;2.60;;;8.40;99.90;;;;;;5108500;28;20085;-60
2023/04/14 07:34:26;;;;;;;25.80;7.65;;;8.50;99.90;;;;;;5107359;28;20115;-59
2023/04/14 07:36:53;;;;;;;16.17;5.57;;;8.60;99.90;;;;;;5107874;28;20061;-59
2023/04/14 07:39:20;;;;;;;20.20;3.05;;;8.60;99.90;;;;;;5095001;28;20511;-60
2023/04/14 07:41:49;;;;;;;22.17;3.13;;;8.70;99.90;;;;;;5093825;28;20109;-59
2023/04/14 07:44:16;;;;;;;64.30;6.63;;;8.80;99.90;;;;;;5102353;28;20054;-60
2023/04/14 07:46:42;;;;;;;23.15;3.08;;;8.80;99.90;;;;;;5106094;28;20081;-60
2023/04/14 07:49:12;;;;;;;26.33;2.80;;;8.90;99.90;;;;;;5106517;28;20035;-60
2023/04/14 07:51:39;;;;;;;34.65;4.18;;;9.00;99.90;;;;;;5109593;28;20082;-60
2023/04/14 07:54:06;;;;;;;17.35;2.50;;;9.10;99.90;;;;;;5110013;28;20063;-60
2023/04/14 07:56:33;;;;;;;26.80;2.75;;;9.20;99.90;;;;;;5103862;28;20410;-60
2023/04/14 07:59:00;;;;;;;20.75;2.42;;;9.30;99.90;;;;;;5093597;28;20139;-55
2023/04/14 08:01:27;;;;;;;22.10;4.18;;;9.40;99.90;;;;;;5093437;28;20114;-59
2023/04/14 08:03:54;;;;;;;18.75;2.80;;;9.50;99.90;;;;;;5093675;28;20097;-61
2023/04/14 08:06:21;;;;;;;13.68;3.17;;;9.50;99.90;;;;;;5100852;28;20035;-60
2023/04/14 08:08:48;;;;;;;12.38;1.60;;;9.60;99.90;;;;;;5112923;28;20060;-61
2023/04/14 08:11:14;;;;;;;10.40;2.13;;;9.60;99.90;;;;;;5112831;28;20032;-60
2023/04/14 08:13:41;;;;;;;12.45;2.25;;;9.70;99.90;;;;;;5112972;28;20434;-58
2023/04/14 08:16:08;;;;;;;10.55;2.08;;;9.70;99.90;;;;;;5112765;28;20486;-59
2023/04/14 08:18:35;;;;;;;13.88;3.22;;;9.80;99.90;;;;;;5111920;28;20040;-60
2023/04/14 08:21:02;;;;;;;9.70;2.55;;;9.80;99.90;;;;;;5112731;28;20469;-60
2023/04/14 08:23:28;;;;;;;13.20;2.50;;;9.90;99.90;;;;;;5111146;28;20486;-59
2023/04/14 08:25:55;;;;;;;12.40;2.40;;;9.90;99.90;;;;;;5095682;28;20056;-59
2023/04/14 08:28:22;;;;;;;7.57;2.03;;;9.90;99.90;;;;;;5096889;28;20060;-60
2023/04/14 08:30:49;;;;;;;16.67;2.65;;;9.90;99.90;;;;;;5099677;28;20035;-59
2023/04/14 08:33:15;;;;;;;14.13;2.28;;;10.00;99.90;;;;;;5116634;28;20454;-60
2023/04/14 08:35:42;;;;;;;14.73;2.35;;;10.00;99.90;;;;;;5116083;28;20044;-59
2023/04/14 08:38:09;;;;;;;12.27;2.35;;;10.10;99.90;;;;;;5096335;28;20371;-59
2023/04/14 08:40:37;;;;;;;16.70;2.60;;;10.10;99.90;;;;;;5096300;28;20127;-58
2023/04/14 08:43:04;;;;;;;12.13;2.28;;;10.20;99.90;;;;;;5112460;28;20088;-60
2023/04/14 08:45:34;;;;;;;12.55;2.28;;;10.20;99.90;;;;;;5116440;28;20051;-60
2023/04/14 08:48:01;;;;;;;11.25;2.28;;;10.30;99.90;;;;;;5114867;28;20379;-60
2023/04/14 08:50:28;;;;;;;14.65;2.55;;;10.30;99.90;;;;;;5114665;28;20051;-60
2023/04/14 08:52:55;;;;;;;13.05;2.50;;;10.40;99.90;;;;;;5108775;28;20150;-60
2023/04/14 08:55:22;;;;;;;12.60;2.72;;;10.50;99.90;;;;;;5115921;28;20126;-60
2023/04/14 08:57:49;;;;;;;11.35;2.45;;;10.60;99.90;;;;;;5113569;28;20055;-59
2023/04/14 09:00:16;;;;;;;10.88;2.33;;;10.60;99.90;;;;;;5115835;28;20126;-60
2023/04/14 09:02:42;;;;;;;18.42;3.10;;;10.60;99.90;;;;;;5115946;28;20048;-59
2023/04/14 09:05:09;;;;;;;23.60;5.03;;;10.70;99.90;;;;;;5113334;28;20043;-60
2023/04/14 09:07:36;;;;;;;9.63;2.17;;;10.80;99.90;;;;;;5115785;28;20046;-60
2023/04/14 09:10:03;;;;;;;12.82;2.33;;;10.90;99.90;;;;;;5108275;28;20067;-58
2023/04/14 09:12:30;;;;;;;12.07;2.97;;;10.90;99.90;;;;;;5114519;28;20043;-57
2023/04/14 09:14:56;;;;;;;11.02;2.67;;;10.90;99.90;;;;;;5110767;28;20482;-59
2023/04/14 09:17:23;;;;;;;13.48;2.85;;;11.00;99.90;;;;;;5115983;28;20036;-61
2023/04/14 09:19:50;;;;;;;12.85;2.03;;;11.20;99.90;;;;;;5113023;28;20111;-61
2023/04/14 09:22:36;;;;;;;17.42;2.63;;;11.30;99.90;;;;;;5111660;28;20119;-58
2023/04/14 09:25:03;;;;;;;10.55;1.80;;;11.40;99.90;;;;;;5096085;28;20079;-60
2023/04/14 09:27:30;;;;;;;11.13;2.22;;;11.30;99.90;;;;;;5101330;28;20047;-61
2023/04/14 09:29:57;;;;;;;6.43;1.40;;;11.30;99.90;;;;;;5114139;28;20051;-60
2023/04/14 09:32:24;;;;;;;6.63;1.45;;;11.20;99.90;;;;;;5112492;28;20040;-60
2023/04/14 09:34:52;;;;;;;9.70;2.13;;;11.30;99.90;;;;;;5114603;28;20075;-60
2023/04/14 09:37:23;;;;;;;8.93;1.50;;;11.30;99.90;;;;;;5114505;28;20463;-61
2023/04/14 09:39:50;;;;;;;9.27;1.85;;;11.20;99.90;;;;;;5114224;28;20500;-60
2023/04/14 09:42:17;;;;;;;13.38;2.38;;;11.20;99.90;;;;;;5112497;28;20043;-60
2023/04/14 09:44:44;;;;;;;26.08;6.90;;;11.20;99.90;;;;;;5112855;28;20100;-60
2023/04/14 09:47:14;;;;;;;22.20;3.05;;;11.30;99.90;;;;;;5113519;28;20039;-59
2023/04/14 09:49:40;;;;;;;7.47;1.80;;;11.30;99.90;;;;;;5112606;28;20044;-58
2023/04/14 09:52:07;;;;;;;11.85;2.65;;;11.30;99.90;;;;;;5114599;28;20075;-61
2023/04/14 09:54:34;;;;;;;6.82;1.45;;;11.20;99.90;;;;;;5111695;28;20047;-61
2023/04/14 09:57:01;;;;;;;6.93;1.48;;;11.20;99.90;;;;;;5115015;28;20126;-59
2023/04/14 09:59:27;;;;;;;9.40;1.83;;;11.20;99.90;;;;;;5113055;27;20050;-60
2023/04/14 10:01:57;;;;;;;9.45;1.80;;;11.20;99.90;;;;;;5114945;28;20043;-61
2023/04/14 10:04:25;;;;;;;11.50;1.73;;;11.10;99.90;;;;;;5111610;28;20048;-61
2023/04/14 10:06:52;;;;;;;7.50;1.70;;;11.00;99.90;;;;;;5114739;28;20043;-62
2023/04/14 10:09:19;;;;;;;9.02;1.58;;;11.10;99.90;;;;;;5114671;28;20044;-61
2023/04/14 10:11:46;;;;;;;6.43;1.70;;;11.10;99.90;;;;;;5095305;28;20529;-60
2023/04/14 10:14:13;;;;;;;8.40;1.83;;;11.30;99.90;;;;;;5095208;28;20482;-61
2023/04/14 10:16:40;;;;;;;9.20;1.95;;;11.50;99.90;;;;;;5104239;28;20043;-60
2023/04/14 10:19:07;;;;;;;10.82;1.42;;;11.60;99.90;;;;;;5114578;28;20049;-61
2023/04/14 10:21:34;;;;;;;8.32;1.67;;;11.80;99.90;;;;;;5114487;27;20097;-60
2023/04/14 10:24:01;;;;;;;7.30;1.67;;;11.90;99.90;;;;;;5094543;28;20502;-61
2023/04/14 10:26:28;;;;;;;9.93;1.92;;;12.00;99.90;;;;;;5094599;28;20052;-59
2023/04/14 10:28:55;;;;;;;5.28;1.50;;;12.00;99.90;;;;;;5103659;28;20039;-59
2023/04/14 10:31:22;;;;;;;8.43;2.50;;;11.90;99.90;;;;;;5112940;28;20040;-61
2023/04/14 10:33:49;;;;;;;9.00;1.70;;;11.70;99.90;;;;;;5108342;28;20032;-60
2023/04/14 10:36:16;;;;;;;7.43;1.70;;;11.50;99.90;;;;;;5105731;28;20120;-60
2023/04/14 10:38:43;;;;;;;9.23;2.10;;;11.20;99.90;;;;;;5096215;28;20048;-61
2023/04/14 10:41:10;;;;;;;6.43;1.60;;;10.90;99.90;;;;;;5113914;28;20105;-60
2023/04/14 10:43:37;;;;;;;8.25;1.77;;;10.70;99.90;;;;;;5114099;28;20040;-60
2023/04/14 10:46:04;;;;;;;6.30;1.58;;;10.60;99.90;;;;;;5114023;28;20050;-59
2023/04/14 10:48:31;;;;;;;5.78;1.42;;;10.50;99.90;;;;;;5113866;28;20436;-60
2023/04/14 10:50:58;;;;;;;6.80;1.80;;;10.50;99.90;;;;;;5113587;28;20051;-60
2023/04/14 10:53:25;;;;;;;3.90;1.40;;;10.40;99.90;;;;;;5112734;28;20436;-60
2023/04/14 10:55:52;;;;;;;18.27;2.33;;;10.20;99.90;;;;;;5112760;28;20036;-60
2023/04/14 10:58:19;;;;;;;4.35;1.17;;;10.10;99.90;;;;;;5113681;28;20429;-60
2023/04/14 11:00:46;;;;;;;3.75;1.30;;;10.00;99.90;;;;;;5113893;28;20101;-57
2023/04/14 11:03:12;;;;;;;4.30;1.10;;;10.00;99.90;;;;;;5113961;28;20379;-57
2023/04/14 11:05:39;;;;;;;11.15;1.40;;;10.00;99.90;;;;;;5113736;28;20118;-59
2023/04/14 11:08:06;;;;;;;8.98;1.75;;;10.00;99.90;;;;;;5113569;28;20035;-58
2023/04/14 11:10:33;;;;;;;112.65;78.78;;;10.00;99.90;;;;;;5113639;28;20032;-59
2023/04/14 11:13:00;;;;;;;6.47;3.65;;;10.10;99.90;;;;;;5113564;28;20448;-58
2023/04/14 11:15:27;;;;;;;6.25;2.00;;;10.30;99.90;;;;;;5109347;28;20089;-60
2023/04/14 11:17:54;;;;;;;6.30;1.30;;;10.40;99.90;;;;;;5095207;28;20043;-60
2023/04/14 11:20:21;;;;;;;11.50;2.10;;;10.50;99.90;;;;;;5093667;28;20047;-61
2023/04/14 11:22:47;;;;;;;9.57;1.52;;;10.60;99.90;;;;;;5095497;28;20407;-60
2023/04/14 11:25:14;;;;;;;5.70;1.33;;;10.60;99.90;;;;;;5093488;28;20047;-60
2023/04/14 11:27:41;;;;;;;6.85;1.45;;;10.80;99.90;;;;;;5114826;28;20179;-59
2023/04/14 11:30:08;;;;;;;7.43;1.25;;;10.90;99.90;;;;;;5111740;28;20084;-60
2023/04/14 11:32:36;;;;;;;18.35;2.15;;;10.90;99.90;;;;;;5106245;28;20483;-60
2023/04/14 11:35:03;;;;;;;3.33;1.25;;;11.00;99.90;;;;;;5112714;28;20031;-60
2023/04/14 11:37:30;;;;;;;7.63;1.42;;;11.10;99.90;;;;;;5111638;28;20089;-59
2023/04/14 11:39:56;;;;;;;5.55;0.98;;;11.20;99.90;;;;;;5111053;28;20093;-63
2023/04/14 11:42:23;;;;;;;9.38;1.50;;;11.30;99.90;;;;;;5112920;28;20043;-59
2023/04/14 11:44:50;;;;;;;4.47;1.27;;;11.30;99.90;;;;;;5112022;28;20067;-61
2023/04/14 11:47:17;;;;;;;9.07;1.65;;;11.40;99.90;;;;;;5112763;28;20046;-62
2023/04/14 11:49:43;;;;;;;37.15;4.20;;;11.50;99.90;;;;;;5106544;28;20432;-61
2023/04/14 11:52:10;;;;;;;11.52;2.58;;;11.70;99.90;;;;;;5112890;28;20050;-62
2023/04/14 11:54:37;;;;;;;6.03;1.38;;;11.60;99.90;;;;;;5107781;28;20059;-61
2023/04/14 11:57:05;;;;;;;6.43;1.08;;;11.70;99.90;;;;;;5112939;28;20058;-62
2023/04/14 11:59:31;;;;;;;7.90;1.27;;;11.80;99.90;;;;;;5108814;28;20122;-60
2023/04/14 12:02:02;;;;;;;3.92;0.90;;;11.80;99.90;;;;;;5114363;28;20040;-61
2023/04/14 12:04:29;;;;;;;3.38;0.88;;;11.80;99.90;;;;;;5116988;28;20036;-61
2023/04/14 12:06:56;;;;;;;6.28;1.00;;;11.80;99.90;;;;;;5116973;28;20108;-58
2023/04/14 12:09:23;;;;;;;3.85;0.80;;;11.70;99.90;;;;;;5112756;28;20040;-59
2023/04/14 12:11:50;;;;;;;6.63;1.20;;;11.70;99.90;;;;;;5097766;28;20051;-61
2023/04/14 12:14:16;;;;;;;3.35;0.80;;;11.70;99.90;;;;;;5096401;28;20045;-60
2023/04/14 12:16:43;;;;;;;4.50;0.80;;;11.80;99.90;;;;;;5113798;28;20043;-61
2023/04/14 12:19:10;;;;;;;2.30;0.80;;;12.00;99.90;;;;;;5116283;28;20063;-61
2023/04/14 12:21:37;;;;;;;2.00;0.50;;;12.20;99.90;;;;;;5113684;28;20066;-61
2023/04/14 12:24:03;;;;;;;1.95;0.60;;;12.10;99.90;;;;;;5115954;28;20036;-60
2023/04/14 12:26:31;;;;;;;2.78;0.40;;;12.10;99.90;;;;;;5105359;28;20071;-61
2023/04/14 12:28:58;;;;;;;1.95;0.80;;;12.10;99.90;;;;;;5101595;28;20039;-61
2023/04/14 12:31:25;;;;;;;3.15;0.73;;;12.00;99.90;;;;;;5100411;28;20032;-61
2023/04/14 12:33:52;;;;;;;3.15;0.90;;;12.00;99.90;;;;;;5115734;28;20042;-59
2023/04/14 12:36:20;;;;;;;3.53;0.80;;;12.00;99.90;;;;;;5111709;28;20035;-61
2023/04/14 12:38:47;;;;;;;2.60;0.57;;;12.00;99.90;;;;;;5116112;28;20054;-61
2023/04/14 12:41:14;;;;;;;4.40;0.70;;;12.00;99.90;;;;;;5112993;28;20048;-61
2023/04/14 12:43:41;;;;;;;3.28;0.60;;;12.00;99.90;;;;;;5115773;28;20040;-61
2023/04/14 12:46:07;;;;;;;1.58;0.40;;;12.10;99.90;;;;;;5111290;28;20047;-60
2023/04/14 12:48:34;;;;;;;1.77;0.50;;;12.10;99.90;;;;;;5098956;28;20036;-60